Nearby METAR Reports

 

PAEN - Kenai, Alaska, USA
Distance from station: ESE 2mi, 4km
Updated: Wed, 05-Oct-2022 7:53am AKDT
Overcast
Overcast
 Wind from NNE
Wind: NNE 16 mph , 26 km/h
Temperature: 48°F , 9°C
Wind Chill: 42°F , 6°C
Dew Point: 43°F , 6°C
Humidity: 82%
Barometer: 29.81 inHg , 1009.5 hPa
Clouds: Overcast
Visibility: 10 miles , 16 km
Cloud details: Overcast 10000 ft
2022/10/05 15:53 PAEN 051553Z 02014KT 10SM OVC100 09/06 A2981 RMK AO2 SLP098 T00890061
PASX - Soldotna, Alaska, USA
Distance from station: SE 12mi, 19km
Updated: Wed, 05-Oct-2022 7:56am AKDT
Overcast
Overcast
 Wind from ENE
Wind: ENE 8 mph , 13 km/h
Temperature: 48°F , 9°C
Wind Chill: 44°F , 7°C
Dew Point: 41°F , 5°C
Humidity: 76%
Barometer: 29.84 inHg , 1010.5 hPa
Clouds: Overcast
Visibility: 10 miles , 16 km
Cloud details: Overcast 6000 ft
2022/10/05 15:56 PASX 051556Z AUTO 06007KT 10SM OVC060 09/05 A2984 RMK AO2 SLP110 T00890050
 
PANC - Anchorage Intl, Alaska, USA
Distance from station: NE 59mi, 96km
Updated: Wed, 05-Oct-2022 7:53am AKDT
Overcast
Overcast
 Wind from NNE
Wind: NNE 8 mph , 13 km/h
Temperature: 46°F , 8°C
Wind Chill: 42°F , 6°C
Dew Point: 39°F , 4°C
Humidity: 76%
Barometer: 29.85 inHg , 1010.8 hPa
Clouds: Overcast
Visibility: 10 miles , 16 km
Cloud details: Partly cloudy 10000 ft
Overcast 12000 ft
2022/10/05 15:53 PANC 051553Z 02007KT 10SM SCT100 OVC120 08/04 A2985 RMK AO2 RAB42E50 CIG 095 N SLP107 P0000 T00830044
PALH - Anchorage/Lake H, Alaska, USA
Distance from station: NE 61mi, 99km
Updated: Wed, 05-Oct-2022 3:53am AKDT
NOT Current
Overcast
Overcast
 Wind from NE
Wind: NE 6 mph , 9 km/h
Temperature: 46°F , 8°C
Wind Chill: 43°F , 6°C
Dew Point: 43°F , 6°C
Humidity: 87%
Barometer: 29.88 inHg , 1011.9 hPa
Clouds: Overcast
Visibility: 10 miles , 16 km
Cloud details: Partly cloudy 6500 ft
Overcast 11000 ft
2022/10/05 11:53 PALH 051153Z AUTO 05005KT 10SM SCT065 OVC110 08/06 A2988 RMK AO2 SLP119 60000 T00830056 10089 20083 58003 TSNO
 
PAHO - Homer, Alaska, USA
Distance from station: S 66mi, 106km
Updated: Wed, 05-Oct-2022 7:53am AKDT
Overcast
Overcast
 Wind from ENE
Wind: ENE 7 mph , 11 km/h
Temperature: 50°F , 10°C
Wind Chill: 47°F , 8°C
Dew Point: 43°F , 6°C
Humidity: 76%
Barometer: 29.74 inHg , 1007.1 hPa
Clouds: Overcast
Visibility: 10 miles , 16 km
Cloud details: Overcast 5500 ft
2022/10/05 15:53 PAHO 051553Z 06006KT 10SM OVC055 10/06 A2974 RMK AO2 SLP071 T01000061
PAMR - Anchorage/Merril, Alaska, USA
Distance from station: NE 66mi, 106km
Updated: Wed, 05-Oct-2022 7:53am AKDT
Mostly cloudy
Mostly cloudy
 Wind from N
Wind: N 3 mph , 6 km/h
Temperature: 46°F , 8°C
Dew Point: 39°F , 4°C
Humidity: 76%
Barometer: 29.85 inHg , 1010.8 hPa
Clouds: Mostly cloudy
Visibility: 10 miles , 16 km
Cloud details: Few Clouds 7000 ft
Mostly cloudy 11000 ft
2022/10/05 15:53 PAMR 051553Z 36003KT 10SM FEW070 BKN110 08/04 A2985 RMK AO2 SLP109 T00830044
 
PAED - Elmendorf Afb, Alaska, USA
Distance from station: NE 69mi, 110km
Updated: Wed, 05-Oct-2022 7:55am AKDT
Overcast
Overcast
 Wind from N
Wind: N 5 mph , 7 km/h
Temperature: 46°F , 8°C
Wind Chill: 44°F , 7°C
Dew Point: 39°F , 4°C
Humidity: 76%
Barometer: 29.83 inHg , 1010.2 hPa
Clouds: Overcast
Visibility: 10 miles , 16 km
Cloud details: Partly cloudy 7000 ft
Overcast 11000 ft
2022/10/05 15:55 PAED 051555Z 01004KT 10SM SCT070 OVC110 08/04 A2983 RMK AO2A SLP098 VIRGA W T00820042
PAWD - Seward, Alaska, USA
Distance from station: ESE 71mi, 115km
Updated: Wed, 05-Oct-2022 7:53am AKDT
Overcast
Overcast
 Wind from N
Wind: N 9 mph , 15 km/h
Temperature: 57°F , 14°C
Dew Point: 43°F , 6°C
Humidity: 59%
Barometer: 29.78 inHg , 1008.5 hPa
Clouds: Overcast
Visibility: 10 miles , 16 km
Cloud details: Partly cloudy 6000 ft
Mostly cloudy 7000 ft
Overcast 9500 ft
2022/10/05 15:53 PAWD 051553Z AUTO 35008KT 10SM SCT060 BKN070 OVC095 14/06 A2978 RMK AO2 SLP083 T01390061 TSNO PNO
 
PASC - Deadhorse, Alaska, USA
Distance from station: ENE 670mi, 1078km
Updated: Wed, 05-Oct-2022 7:53am AKDT
Light rain, Overcast
Light rain, Overcast
 Wind from SW
Wind: SW 6 mph , 9 km/h
Temperature: 34°F , 1°C
Wind Chill: 29°F , -2°C
Dew Point: 32°F , 0°C
Humidity: 93%
Barometer: 29.91 inHg , 1012.9 hPa
Summary: Light rain
Clouds: Overcast
Visibility: 8 miles , 13 km
Cloud details: Few Clouds 1600 ft
Overcast 2100 ft
2022/10/05 15:53 PASC 051553Z 22005KT 8SM -RA FEW016 OVC021 01/00 A2991 RMK AO2 SLP129 P0003 T00060000 $
PAAD - Point Thomson, Alaska, USA
Distance from station: ENE 680mi, 1094km
Updated: Wed, 05-Oct-2022 8:15am AKDT
Overcast
Overcast
 Wind from WSW
Wind: WSW 8 mph , 13 km/h
Temperature: 32°F , 0°C
Wind Chill: 25°F , -4°C
Dew Point: 28°F , -2°C
Humidity: 87%
Barometer: 29.91 inHg , 1012.9 hPa
Clouds: Overcast
Visibility: 10 miles , 16 km
Cloud details: Partly cloudy 6000 ft
Overcast 7000 ft
2022/10/05 16:15 PAAD 051615Z AUTO 25007KT 10SM SCT060 OVC070 00/M02 A2991 RMK AO2 T10021023


kenaipeople.com website

Dans Automotive

Lower Peninsula Power Sports

Freddies RoadHouse

Alaska Weather Net